createdAt,value
2022-08-30T00:01:46.287Z,97882.59
2022-08-30T00:03:55.209Z,97885.88
2022-08-30T00:06:03.287Z,97884.44
2022-08-30T00:08:12.481Z,97886.56
2022-08-30T00:10:24.542Z,97884.84
2022-08-30T00:12:32.896Z,97877.63
2022-08-30T00:14:40.747Z,97885.00
2022-08-30T00:16:48.806Z,97885.56
2022-08-30T00:18:57.184Z,97888.81
2022-08-30T00:21:07.843Z,97885.69
2022-08-30T00:23:22.891Z,97888.09
2022-08-30T00:25:34.607Z,97882.72
2022-08-30T00:27:42.850Z,97888.09
2022-08-30T00:29:50.766Z,97888.25
2022-08-30T00:31:58.598Z,97887.66
2022-08-30T00:34:07.453Z,97888.25
2022-08-30T00:36:16.157Z,97888.69
2022-08-30T00:38:24.727Z,97887.09
2022-08-30T00:40:35.490Z,97891.91
2022-08-30T00:42:43.802Z,97893.31
2022-08-30T00:44:52.345Z,97890.03
2022-08-30T00:47:00.640Z,97878.44
2022-08-30T00:49:13.049Z,97885.88
2022-08-30T00:51:22.505Z,97884.34
2022-08-30T00:53:36.829Z,97896.63
2022-08-30T00:55:49.123Z,97891.56
2022-08-30T00:58:01.496Z,97889.97
2022-08-30T01:00:13.364Z,97889.28
2022-08-30T01:02:25.728Z,97882.06
2022-08-30T01:04:35.273Z,97880.38
2022-08-30T01:06:43.757Z,97881.72
2022-08-30T01:08:51.963Z,97880.63
2022-08-30T01:11:03.744Z,97892.19
2022-08-30T01:13:13.725Z,97891.03
2022-08-30T01:15:22.028Z,97897.53
2022-08-30T01:17:30.792Z,97895.41
2022-08-30T01:19:44.555Z,97891.97
2022-08-30T01:22:00.286Z,97892.63
2022-08-30T01:24:12.468Z,97888.06
2022-08-30T01:26:22.026Z,97891.59
2022-08-30T01:28:32.048Z,97890.41
2022-08-30T01:30:43.147Z,97886.88
2022-08-30T01:32:51.815Z,97890.97
2022-08-30T01:35:00.247Z,97889.16
2022-08-30T01:37:08.155Z,97882.50
2022-08-30T01:39:21.307Z,97884.47
2022-08-30T01:41:31.738Z,97887.28
2022-08-30T01:43:39.801Z,97884.59
2022-08-30T01:45:48.928Z,97889.72
2022-08-30T01:47:56.863Z,97891.59
2022-08-30T01:50:09.844Z,97894.53
2022-08-30T01:52:19.736Z,97896.63
2022-08-30T01:54:35.927Z,97896.66
2022-08-30T01:56:46.803Z,97894.81
2022-08-30T01:58:59.196Z,97897.59
2022-08-30T02:01:18.468Z,97897.34
2022-08-30T02:03:26.793Z,97892.78
2022-08-30T02:05:34.751Z,97894.00
2022-08-30T02:07:42.648Z,97900.88
2022-08-30T02:09:53.517Z,97901.88
2022-08-30T02:12:01.313Z,97895.84
2022-08-30T02:14:09.517Z,97899.22
2022-08-30T02:16:23.007Z,97890.84
2022-08-30T02:18:31.356Z,97894.47
2022-08-30T02:20:40.546Z,97890.38
2022-08-30T02:22:49.494Z,97888.16
2022-08-30T02:25:00.142Z,97888.59
2022-08-30T02:27:09.194Z,97885.75
2022-08-30T02:29:17.562Z,97883.47
2022-08-30T02:31:25.981Z,97875.03
2022-08-30T02:33:34.615Z,97881.50
2022-08-30T02:35:42.799Z,97883.69
2022-08-30T02:37:50.749Z,97879.94
2022-08-30T02:40:01.260Z,97873.28
2022-08-30T02:42:09.209Z,97873.66
2022-08-30T02:44:16.989Z,97873.50
2022-08-30T02:46:24.790Z,97866.91
2022-08-30T02:48:32.779Z,97863.72
2022-08-30T02:50:43.467Z,97860.88
2022-08-30T02:52:51.310Z,97867.38
2022-08-30T02:55:02.635Z,97866.78
2022-08-30T02:57:20.130Z,97874.28
2022-08-30T02:59:28.474Z,97872.50
2022-08-30T03:01:39.102Z,97874.53
2022-08-30T03:03:48.829Z,97869.66
2022-08-30T03:05:56.725Z,97870.19
2022-08-30T03:08:05.036Z,97860.19
2022-08-30T03:10:16.449Z,97872.59
2022-08-30T03:12:25.229Z,97864.66
2022-08-30T03:14:33.390Z,97867.44
2022-08-30T03:16:41.449Z,97860.38
2022-08-30T03:18:49.378Z,97860.50
2022-08-30T03:20:57.194Z,97860.38
2022-08-30T03:23:05.217Z,97860.13
2022-08-30T03:25:16.621Z,97859.16
2022-08-30T03:27:24.473Z,97847.72
2022-08-30T03:29:32.507Z,97845.03
2022-08-30T03:31:40.765Z,97834.78
2022-08-30T03:34:01.404Z,97847.38
2022-08-30T03:36:09.683Z,97849.31
2022-08-30T03:38:17.623Z,97853.81
2022-08-30T03:40:28.428Z,97844.94
2022-08-30T03:42:36.212Z,97851.41
2022-08-30T03:44:44.365Z,97855.97
2022-08-30T03:46:54.615Z,97857.09
2022-08-30T03:49:02.742Z,97852.25
2022-08-30T03:51:10.726Z,97850.34
2022-08-30T03:53:18.661Z,97843.69
2022-08-30T03:55:29.984Z,97848.81
2022-08-30T03:57:43.460Z,97844.34
2022-08-30T03:59:51.837Z,97847.31
2022-08-30T04:02:00.007Z,97847.16
2022-08-30T04:04:10.405Z,97846.56
2022-08-30T04:06:18.965Z,97848.78
2022-08-30T04:08:27.432Z,97843.22
2022-08-30T04:10:38.252Z,97842.47
2022-08-30T04:12:49.567Z,97842.88
2022-08-30T04:14:58.052Z,97838.84
2022-08-30T04:17:06.222Z,97844.47
2022-08-30T04:19:14.173Z,97841.06
2022-08-30T04:21:22.946Z,97844.47
2022-08-30T04:23:30.910Z,97844.56
2022-08-30T04:25:42.368Z,97851.41
2022-08-30T04:27:50.160Z,97851.63
2022-08-30T04:29:58.031Z,97848.38
2022-08-30T04:32:06.619Z,97849.50
2022-08-30T04:34:14.948Z,97847.19
2022-08-30T04:36:22.820Z,97853.63
2022-08-30T04:38:30.763Z,97851.19
2022-08-30T04:40:41.811Z,97846.78
2022-08-30T04:42:54.134Z,97848.75
2022-08-30T04:45:02.508Z,97848.63
2022-08-30T04:47:10.874Z,97852.28
2022-08-30T04:49:18.812Z,97853.63
2022-08-30T04:51:26.710Z,97853.63
2022-08-30T04:53:34.538Z,97852.19
2022-08-30T04:55:46.368Z,97868.09
2022-08-30T04:57:55.519Z,97870.63
2022-08-30T05:00:04.654Z,97875.97
2022-08-30T05:02:14.831Z,97873.53
2022-08-30T05:04:22.815Z,97877.19
2022-08-30T05:06:32.579Z,97878.16
2022-08-30T05:08:46.097Z,97880.19
2022-08-30T05:10:57.519Z,97886.09
2022-08-30T05:13:05.452Z,97885.81
2022-08-30T05:15:15.238Z,97881.41
2022-08-30T05:17:23.453Z,97891.84
2022-08-30T05:19:34.767Z,97911.63
2022-08-30T05:21:43.443Z,97917.56
2022-08-30T05:23:52.543Z,97930.91
2022-08-30T05:26:07.880Z,97931.91
2022-08-30T05:28:16.090Z,97934.59
2022-08-30T05:30:26.153Z,97941.16
2022-08-30T05:32:34.107Z,97937.53
2022-08-30T05:34:44.035Z,97948.00
2022-08-30T05:36:53.273Z,97954.81
2022-08-30T05:39:07.599Z,97943.03
2022-08-30T05:41:22.381Z,97943.69
2022-08-30T05:43:31.337Z,97946.03
2022-08-30T05:45:39.174Z,97944.53
2022-08-30T05:47:47.753Z,97947.41
2022-08-30T05:49:55.688Z,97935.56
2022-08-30T05:52:03.715Z,97920.75
2022-08-30T05:54:11.615Z,97928.00
2022-08-30T05:56:25.239Z,97916.56
2022-08-30T05:58:35.066Z,97916.09
2022-08-30T06:00:43.004Z,97911.75
2022-08-30T06:02:50.958Z,97917.53
2022-08-30T06:04:58.899Z,97910.41
2022-08-30T06:07:09.510Z,97918.63
2022-08-30T06:09:20.520Z,97934.44
2022-08-30T06:11:30.988Z,97944.19
2022-08-30T06:13:38.809Z,97954.31
2022-08-30T06:15:47.455Z,97973.19
2022-08-30T06:17:55.247Z,97984.75
2022-08-30T06:20:03.258Z,97989.25
2022-08-30T06:22:11.147Z,98003.41
2022-08-30T06:24:20.766Z,98022.34
2022-08-30T06:26:40.821Z,98013.13
2022-08-30T06:28:49.750Z,98026.69
2022-08-30T06:30:57.562Z,98032.00
2022-08-30T06:33:05.896Z,98023.03
2022-08-30T06:35:14.221Z,98014.19
2022-08-30T06:37:30.006Z,98011.31
2022-08-30T06:39:39.068Z,98010.19
2022-08-30T06:41:49.552Z,97994.63
2022-08-30T06:44:17.832Z,98001.50
2022-08-30T06:46:30.078Z,98003.59
2022-08-30T06:48:38.021Z,98007.06
2022-08-30T06:50:46.087Z,98006.88
2022-08-30T06:52:54.956Z,98008.91
2022-08-30T06:55:04.786Z,98014.94
2022-08-30T06:57:15.410Z,98018.50
2022-08-30T06:59:23.392Z,98021.53
2022-08-30T07:01:32.826Z,98012.00
2022-08-30T07:03:41.021Z,98001.19
2022-08-30T07:05:51.104Z,97995.44
2022-08-30T07:07:58.961Z,98006.78
2022-08-30T07:10:10.121Z,98010.88
2022-08-30T07:12:22.369Z,98002.09
2022-08-30T07:14:30.249Z,97992.44
2022-08-30T07:16:38.413Z,97991.06
2022-08-30T07:18:55.034Z,97995.81
2022-08-30T07:21:10.094Z,98002.50
2022-08-30T07:23:18.055Z,97996.28
2022-08-30T07:25:27.488Z,97976.31
2022-08-30T07:27:37.884Z,97968.41
2022-08-30T07:29:45.746Z,97975.50
2022-08-30T07:31:53.542Z,97969.22
2022-08-30T07:34:01.477Z,97967.78
2022-08-30T07:36:10.210Z,97977.47
2022-08-30T07:38:18.419Z,97976.16
2022-08-30T07:40:28.428Z,97964.59
2022-08-30T07:42:41.069Z,97961.75
2022-08-30T07:44:48.905Z,97949.34
2022-08-30T07:46:57.958Z,97953.03
2022-08-30T07:49:11.100Z,97942.56
2022-08-30T07:51:21.812Z,97944.84
2022-08-30T07:53:31.986Z,97936.63
2022-08-30T07:55:39.827Z,97937.28
2022-08-30T07:57:50.967Z,97939.50
2022-08-30T07:59:58.874Z,97931.34
2022-08-30T08:02:06.963Z,97931.88
2022-08-30T08:04:14.827Z,97924.09
2022-08-30T08:06:25.593Z,97928.28
2022-08-30T08:08:34.174Z,97918.28
2022-08-30T08:10:44.875Z,97921.09
2022-08-30T08:12:55.512Z,97916.59
2022-08-30T08:15:06.644Z,97912.72
2022-08-30T08:17:16.738Z,97919.28
2022-08-30T08:19:24.690Z,97919.94
2022-08-30T08:21:32.461Z,97925.69
2022-08-30T08:23:40.438Z,97927.38
2022-08-30T08:25:48.296Z,97928.81
2022-08-30T08:27:58.744Z,97918.25
2022-08-30T08:30:07.921Z,97928.88
2022-08-30T08:32:15.778Z,97923.97
2022-08-30T08:34:26.125Z,97928.25
2022-08-30T08:36:34.511Z,97931.28
2022-08-30T08:38:45.988Z,97929.44
2022-08-30T08:41:03.137Z,97925.50
2022-08-30T08:43:17.854Z,97923.81
2022-08-30T08:45:35.521Z,97918.66
2022-08-30T08:47:52.660Z,97902.06
2022-08-30T08:50:05.795Z,97911.97
2022-08-30T08:52:33.626Z,97906.75
2022-08-30T08:54:47.465Z,97911.25
2022-08-30T08:56:55.216Z,97903.22
2022-08-30T08:59:07.716Z,97908.34
2022-08-30T09:01:18.733Z,97904.34
2022-08-30T09:03:29.456Z,97907.75
2022-08-30T09:05:41.950Z,97905.25
2022-08-30T09:07:54.988Z,97903.72
2022-08-30T09:10:03.189Z,97901.84
2022-08-30T09:12:14.188Z,97897.09
2022-08-30T09:14:30.352Z,97904.28
2022-08-30T09:17:02.619Z,97903.38
2022-08-30T09:19:11.276Z,97902.00
2022-08-30T09:21:32.178Z,97911.25
2022-08-30T09:23:50.352Z,97919.69
2022-08-30T09:26:00.124Z,97924.75
2022-08-30T09:28:14.580Z,97937.91
2022-08-30T09:30:27.491Z,97929.28
2022-08-30T09:32:40.726Z,97924.25
2022-08-30T09:34:48.830Z,97929.78
2022-08-30T09:36:57.571Z,97919.06
2022-08-30T09:39:17.596Z,97921.94
2022-08-30T09:41:49.284Z,97921.50
2022-08-30T09:44:10.754Z,97924.22
2022-08-30T09:46:27.447Z,97917.03
2022-08-30T09:48:40.532Z,97916.66
2022-08-30T09:50:48.981Z,97912.94
2022-08-30T09:53:12.637Z,97907.88
2022-08-30T09:55:34.184Z,97908.53
2022-08-30T09:57:52.647Z,97907.84
2022-08-30T10:00:07.520Z,97906.28
2022-08-30T10:02:38.249Z,97900.34
2022-08-30T10:04:53.226Z,97893.38
2022-08-30T10:07:09.720Z,97890.47
2022-08-30T10:09:29.499Z,97888.13
2022-08-30T10:11:46.318Z,97891.25
2022-08-30T10:14:28.452Z,97878.06
2022-08-30T10:16:48.315Z,97876.47
2022-08-30T10:19:24.570Z,97873.38
2022-08-30T10:21:38.696Z,97870.19
2022-08-30T10:23:51.922Z,97870.09
2022-08-30T10:26:08.573Z,97864.28
2022-08-30T10:28:19.619Z,97863.19
2022-08-30T10:30:27.688Z,97854.94
2022-08-30T10:32:41.965Z,97853.53
2022-08-30T10:35:00.826Z,97852.59
2022-08-30T10:37:13.512Z,97848.81
2022-08-30T10:39:28.329Z,97857.28
2022-08-30T10:41:42.526Z,97845.28
2022-08-30T10:43:57.444Z,97847.06
2022-08-30T10:46:14.068Z,97847.78
2022-08-30T10:48:28.322Z,97846.56
2022-08-30T10:50:45.740Z,97842.56
2022-08-30T10:53:02.139Z,97837.19
2022-08-30T10:55:16.693Z,97835.81
2022-08-30T10:57:24.724Z,97835.78
2022-08-30T10:59:40.325Z,97839.28
2022-08-30T11:02:36.244Z,97845.84
2022-08-30T11:05:08.174Z,97832.47
2022-08-30T11:07:31.508Z,97829.28
2022-08-30T11:10:09.159Z,97828.63
2022-08-30T11:12:36.842Z,97834.16
2022-08-30T11:14:48.465Z,97831.94
2022-08-30T11:16:59.223Z,97823.41
2022-08-30T11:19:18.952Z,97820.88
2022-08-30T11:21:37.243Z,97826.38
2022-08-30T11:24:02.362Z,97819.78
2022-08-30T11:26:20.462Z,97828.47
2022-08-30T11:28:58.601Z,97832.44
2022-08-30T11:31:10.142Z,97833.72
2022-08-30T11:33:42.913Z,97832.44
2022-08-30T11:35:56.739Z,97832.06
2022-08-30T11:38:14.796Z,97827.66
2022-08-30T11:40:54.122Z,97829.06
2022-08-30T11:43:40.307Z,97830.53
2022-08-30T11:45:55.747Z,97826.53
2022-08-30T11:48:05.782Z,97829.69
2022-08-30T11:50:20.030Z,97831.00
2022-08-30T11:52:41.470Z,97832.88
2022-08-30T11:55:06.891Z,97820.47
2022-08-30T11:57:31.678Z,97830.09
2022-08-30T11:59:52.097Z,97819.16
2022-08-30T12:02:01.681Z,97823.44
2022-08-30T12:04:15.498Z,97814.59
2022-08-30T12:06:49.350Z,97814.59
2022-08-30T12:09:02.606Z,97814.78
2022-08-30T12:11:47.674Z,97818.31
2022-08-30T12:13:58.986Z,97813.50
2022-08-30T12:16:09.521Z,97821.31
2022-08-30T12:18:28.365Z,97822.53
2022-08-30T12:20:44.928Z,97818.78
2022-08-30T12:22:56.731Z,97808.66
2022-08-30T12:25:05.804Z,97810.56
2022-08-30T12:27:26.314Z,97813.66
2022-08-30T12:29:53.743Z,97814.22
2022-08-30T12:32:05.218Z,97805.63
2022-08-30T12:34:23.184Z,97804.59
2022-08-30T12:36:39.691Z,97808.06
2022-08-30T12:38:51.560Z,97799.41
2022-08-30T12:41:05.668Z,97803.00
2022-08-30T12:43:26.966Z,97798.25
2022-08-30T12:45:51.330Z,97795.44
2022-08-30T12:48:02.846Z,97795.75
2022-08-30T12:50:15.287Z,97793.00
2022-08-30T12:52:37.614Z,97791.44
2022-08-30T12:54:46.815Z,97799.94
2022-08-30T12:59:56.764Z,97788.16
2022-08-30T13:03:23.193Z,97787.41
2022-08-30T13:04:44.454Z,97787.84
2022-08-30T13:06:56.147Z,97786.38
2022-08-30T13:09:04.120Z,97771.66
2022-08-30T13:11:14.383Z,97769.13
2022-08-30T13:13:44.237Z,97770.38
2022-08-30T13:15:52.835Z,97767.16
2022-08-30T13:18:30.816Z,97756.94
2022-08-30T13:20:38.822Z,97754.09
2022-08-30T13:23:07.024Z,97757.38
2022-08-30T13:25:18.100Z,97755.50
2022-08-30T13:27:26.675Z,97738.97
2022-08-30T13:29:34.838Z,97743.03
2022-08-30T13:31:43.215Z,97742.94
2022-08-30T13:33:55.537Z,97749.09
2022-08-30T13:36:04.018Z,97735.78
2022-08-30T13:38:12.463Z,97736.56
2022-08-30T13:40:20.748Z,97732.31
2022-08-30T13:42:31.949Z,97736.44
2022-08-30T13:44:41.594Z,97736.41
2022-08-30T13:46:55.544Z,97730.47
2022-08-30T13:49:42.944Z,97728.19
2022-08-30T13:51:37.332Z,97725.00
2022-08-30T13:53:53.532Z,97719.41
2022-08-30T13:56:02.151Z,97715.44
2022-08-30T13:58:14.979Z,97716.16
2022-08-30T14:00:23.775Z,97707.97
2022-08-30T14:02:36.370Z,97709.22
2022-08-30T14:04:51.179Z,97704.81
2022-08-30T14:07:20.104Z,97703.63
2022-08-30T14:09:27.414Z,97702.84
2022-08-30T14:11:36.455Z,97703.03
2022-08-30T14:16:30.712Z,97694.44
2022-08-30T14:18:41.300Z,97692.03
2022-08-30T14:20:51.854Z,97683.06
2022-08-30T14:22:59.760Z,97686.03
2022-08-30T14:25:11.507Z,97688.38
2022-08-30T14:27:20.777Z,97688.81
2022-08-30T14:29:31.376Z,97687.50
2022-08-30T14:31:39.906Z,97684.16
2022-08-30T14:33:49.347Z,97696.16
2022-08-30T14:36:00.295Z,97687.75
2022-08-30T14:38:11.221Z,97696.81
2022-08-30T14:40:22.567Z,97687.97
2022-08-30T14:42:30.680Z,97681.59
2022-08-30T14:44:55.086Z,97679.97
2022-08-30T14:47:03.838Z,97672.22
2022-08-30T14:49:12.305Z,97672.59
2022-08-30T14:51:25.639Z,97666.50
2022-08-30T14:53:33.475Z,97666.31
2022-08-30T14:55:42.687Z,97671.34
2022-08-30T14:57:51.386Z,97667.56
2022-08-30T14:59:59.322Z,97666.53
2022-08-30T15:02:08.033Z,97671.56
2022-08-30T15:04:17.895Z,97672.84
2022-08-30T15:06:32.184Z,97669.00
2022-08-30T15:08:42.956Z,97672.75
2022-08-30T15:10:55.602Z,97670.06
2022-08-30T15:13:04.830Z,97667.38
2022-08-30T15:15:21.508Z,97665.69
2022-08-30T15:17:29.638Z,97664.59
2022-08-30T15:19:39.524Z,97664.63
2022-08-30T15:21:50.746Z,97663.34
2022-08-30T15:23:59.277Z,97658.53
2022-08-30T15:26:09.855Z,97657.03
2022-08-30T15:28:18.579Z,97662.28
2022-08-30T15:30:26.698Z,97654.50
2022-08-30T15:32:34.884Z,97654.72
2022-08-30T15:34:45.021Z,97650.72
2022-08-30T15:37:05.632Z,97642.34
2022-08-30T15:39:16.486Z,97662.53
2022-08-30T15:41:25.794Z,97651.56
2022-08-30T15:43:34.726Z,97652.81
2022-08-30T15:45:42.652Z,97656.78
2022-08-30T15:47:51.378Z,97647.75
2022-08-30T15:50:04.715Z,97643.31
2022-08-30T15:52:15.266Z,97642.69
2022-08-30T15:54:25.967Z,97642.91
2022-08-30T15:56:35.948Z,97643.34
2022-08-30T15:58:44.363Z,97644.22
2022-08-30T16:00:52.359Z,97645.69
2022-08-30T16:03:00.347Z,97636.00
2022-08-30T16:05:09.213Z,97640.81
2022-08-30T16:07:19.968Z,97629.03
2022-08-30T16:09:29.891Z,97634.03
2022-08-30T16:11:42.003Z,97629.34
2022-08-30T16:13:50.548Z,97626.75
2022-08-30T16:15:59.043Z,97617.09
2022-08-30T16:18:09.407Z,97619.97
2022-08-30T16:20:17.339Z,97626.19
2022-08-30T16:22:29.286Z,97617.78
2022-08-30T16:24:37.758Z,97621.94
2022-08-30T16:26:47.066Z,97623.16
2022-08-30T16:28:55.885Z,97617.69
2022-08-30T16:31:08.646Z,97613.41
2022-08-30T16:33:16.538Z,97612.19
2022-08-30T16:35:24.428Z,97617.56
2022-08-30T16:37:35.373Z,97615.69
2022-08-30T16:39:46.514Z,97612.28
2022-08-30T16:41:56.178Z,97613.97
2022-08-30T16:44:05.311Z,97610.19
2022-08-30T16:46:15.883Z,97610.78
2022-08-30T16:48:23.758Z,97603.91
2022-08-30T16:50:31.657Z,97603.66
2022-08-30T16:52:44.224Z,97605.34
2022-08-30T16:54:52.638Z,97604.25
2022-08-30T16:57:00.583Z,97594.41
2022-08-30T16:59:11.509Z,97598.97
2022-08-30T17:01:24.602Z,97604.31
2022-08-30T17:03:34.586Z,97597.78
2022-08-30T17:05:43.397Z,97598.25
2022-08-30T17:07:56.611Z,97599.69
2022-08-30T17:10:05.312Z,97601.50
2022-08-30T17:12:13.192Z,97606.13
2022-08-30T17:14:27.565Z,97605.78
2022-08-30T17:16:38.141Z,97608.09
2022-08-30T17:18:46.090Z,97609.13
2022-08-30T17:20:54.480Z,97615.53
2022-08-30T17:23:04.951Z,97619.03
2022-08-30T17:25:13.362Z,97615.84
2022-08-30T17:27:21.777Z,97630.13
2022-08-30T17:29:30.997Z,97634.25
2022-08-30T17:31:40.729Z,97638.88
2022-08-30T17:33:49.860Z,97642.94
2022-08-30T17:35:58.097Z,97632.69
2022-08-30T17:38:08.684Z,97638.63
2022-08-30T17:40:19.954Z,97652.22
2022-08-30T17:42:29.559Z,97653.38
2022-08-30T17:44:42.215Z,97648.06
2022-08-30T17:46:50.509Z,97645.22
2022-08-30T17:49:01.287Z,97655.84
2022-08-30T17:51:10.361Z,97648.34
2022-08-30T17:53:20.755Z,97648.44
2022-08-30T17:55:31.483Z,97657.72
2022-08-30T17:57:41.905Z,97659.81
2022-08-30T17:59:50.048Z,97655.34
2022-08-30T18:01:58.611Z,97653.06
2022-08-30T18:04:07.990Z,97659.38
2022-08-30T18:06:17.147Z,97662.50
2022-08-30T18:08:28.219Z,97658.28
2022-08-30T18:10:36.090Z,97660.53
2022-08-30T18:12:44.803Z,97662.97
2022-08-30T18:14:54.228Z,97667.28
2022-08-30T18:17:02.170Z,97666.44
2022-08-30T18:19:10.876Z,97664.47
2022-08-30T18:21:22.181Z,97657.91
2022-08-30T18:23:33.619Z,97660.78
2022-08-30T18:25:44.716Z,97665.22
2022-08-30T18:27:58.177Z,97665.22
2022-08-30T18:30:11.727Z,97672.97
2022-08-30T18:32:19.799Z,97669.69
2022-08-30T18:34:28.670Z,97670.91
2022-08-30T18:36:37.121Z,97670.91
2022-08-30T18:38:47.746Z,97683.44
2022-08-30T18:41:01.021Z,97681.00
2022-08-30T18:43:10.292Z,97694.94
2022-08-30T18:45:18.831Z,97692.22
2022-08-30T18:47:27.747Z,97697.53
2022-08-30T18:49:38.554Z,97702.31
2022-08-30T18:51:46.393Z,97705.75
2022-08-30T18:54:01.477Z,97713.41
2022-08-30T18:56:10.308Z,97699.69
2022-08-30T18:58:19.098Z,97704.56
2022-08-30T19:00:27.466Z,97707.28
2022-08-30T19:02:35.509Z,97702.09
2022-08-30T19:04:45.460Z,97709.13
2022-08-30T19:06:53.902Z,97710.91
2022-08-30T19:09:09.165Z,97703.31
2022-08-30T19:11:17.859Z,97708.13
2022-08-30T19:13:28.568Z,97707.22
2022-08-30T19:15:38.082Z,97710.81
2022-08-30T19:17:48.643Z,97711.97
2022-08-30T19:19:57.443Z,97711.34
2022-08-30T19:22:05.567Z,97709.50
2022-08-30T19:24:18.756Z,97710.53
2022-08-30T19:26:27.631Z,97715.09
2022-08-30T19:28:36.827Z,97721.03
2022-08-30T19:30:44.788Z,97723.38
2022-08-30T19:32:54.208Z,97728.31
2022-08-30T19:35:02.147Z,97723.63
2022-08-30T19:39:40.895Z,97732.06
2022-08-30T19:41:48.790Z,97724.25
2022-08-30T19:43:57.450Z,97733.94
2022-08-30T19:46:09.295Z,97732.44
2022-08-30T19:48:22.130Z,97729.56
2022-08-30T19:50:30.505Z,97737.16
2022-08-30T19:52:38.365Z,97732.72
2022-08-30T19:54:48.887Z,97732.41
2022-08-30T19:56:56.861Z,97736.28
2022-08-30T19:59:04.728Z,97738.13
2022-08-30T20:01:32.341Z,97733.19
2022-08-30T20:03:43.116Z,97735.69
2022-08-30T20:05:51.245Z,97738.03
2022-08-30T20:07:59.119Z,97739.75
2022-08-30T20:10:12.731Z,97746.50
2022-08-30T20:12:22.040Z,97745.66
2022-08-30T20:14:33.358Z,97738.22
2022-08-30T20:16:51.418Z,97742.63
2022-08-30T20:18:59.645Z,97746.03
2022-08-30T20:21:13.500Z,97741.09
2022-08-30T20:23:24.113Z,97744.31
2022-08-30T20:25:37.903Z,97740.44
2022-08-30T20:27:46.725Z,97743.69
2022-08-30T20:29:54.665Z,97747.09
2022-08-30T20:32:03.463Z,97737.81
2022-08-30T20:34:11.404Z,97744.06
2022-08-30T20:36:19.446Z,97742.22
2022-08-30T20:38:27.372Z,97738.16
2022-08-30T20:40:40.686Z,97733.44
2022-08-30T20:42:48.736Z,97730.56
2022-08-30T20:44:57.411Z,97736.31
2022-08-30T20:47:05.898Z,97734.31
2022-08-30T20:49:14.640Z,97727.22
2022-08-30T20:51:24.048Z,97720.81
2022-08-30T20:53:32.081Z,97725.91
2022-08-30T20:55:48.146Z,97716.59
2022-08-30T20:57:56.011Z,97710.31
2022-08-30T21:00:04.040Z,97717.78
2022-08-30T21:02:12.070Z,97715.22
2022-08-30T21:04:20.018Z,97720.63
2022-08-30T21:06:27.833Z,97718.25
2022-08-30T21:08:35.873Z,97716.72
2022-08-30T21:10:46.436Z,97715.03
2022-08-30T21:12:55.194Z,97714.66
2022-08-30T21:15:27.067Z,97719.09
2022-08-30T21:17:31.776Z,97717.59
2022-08-30T21:19:43.325Z,97718.09
2022-08-30T21:21:51.876Z,97721.81
2022-08-30T21:24:03.261Z,97720.28
2022-08-30T21:26:14.082Z,97726.22
2022-08-30T21:28:21.848Z,97720.28
2022-08-30T21:30:29.766Z,97720.28
2022-08-30T21:32:38.520Z,97728.94
2022-08-30T21:34:59.920Z,97718.59
2022-08-30T21:37:08.003Z,97724.34
2022-08-30T21:39:18.539Z,97729.09
2022-08-30T21:41:30.231Z,97733.31
2022-08-30T21:43:38.216Z,97730.94
2022-08-30T21:45:50.315Z,97721.31
2022-08-30T21:47:58.507Z,97729.06
2022-08-30T21:50:06.740Z,97730.59
2022-08-30T21:52:14.940Z,97726.19
2022-08-30T21:54:23.275Z,97729.91
2022-08-30T21:56:34.238Z,97724.69
2022-08-30T21:58:42.428Z,97732.09
2022-08-30T22:00:50.840Z,97728.72
2022-08-30T22:02:58.693Z,97730.06
2022-08-30T22:05:07.554Z,97734.78
2022-08-30T22:07:15.564Z,97740.22
2022-08-30T22:09:26.123Z,97733.94
2022-08-30T22:11:37.947Z,97731.59
2022-08-30T22:13:48.599Z,97735.47
2022-08-30T22:15:56.577Z,97743.25
2022-08-30T22:18:04.490Z,97750.53
2022-08-30T22:20:15.122Z,97742.41
2022-08-30T22:22:26.417Z,97744.44
2022-08-30T22:24:34.526Z,97740.19
2022-08-30T22:26:47.831Z,97747.97
2022-08-30T22:28:57.184Z,97751.69
2022-08-30T22:31:06.681Z,97750.66
2022-08-30T22:33:14.842Z,97755.59
2022-08-30T22:35:23.220Z,97747.63
2022-08-30T22:37:32.261Z,97755.41
2022-08-30T22:39:40.058Z,97751.06
2022-08-30T22:41:50.612Z,97751.06
2022-08-30T22:43:58.953Z,97758.31
2022-08-30T22:46:07.128Z,97751.22
2022-08-30T22:48:15.436Z,97750.69
2022-08-30T22:50:23.742Z,97752.56
2022-08-30T22:52:31.571Z,97754.06
2022-08-30T22:54:39.840Z,97748.53
2022-08-30T22:56:50.701Z,97753.25
2022-08-30T22:58:59.290Z,97755.44
2022-08-30T23:01:08.707Z,97756.94
2022-08-30T23:03:16.694Z,97757.47
2022-08-30T23:05:42.563Z,97760.88
2022-08-30T23:07:50.886Z,97767.47
2022-08-30T23:09:59.317Z,97766.78
2022-08-30T23:12:10.143Z,97769.13
2022-08-30T23:14:18.152Z,97764.56
2022-08-30T23:16:26.203Z,97772.19
2022-08-30T23:18:34.148Z,97767.28
2022-08-30T23:20:42.073Z,97772.34
2022-08-30T23:22:49.769Z,97773.34
2022-08-30T23:25:15.823Z,97764.22
2022-08-30T23:27:39.106Z,97768.78
2022-08-30T23:29:59.342Z,97762.00
2022-08-30T23:32:19.956Z,97760.69
2022-08-30T23:34:41.815Z,97758.63
2022-08-30T23:37:02.364Z,97754.25
2022-08-30T23:39:22.960Z,97752.88
2022-08-30T23:41:43.253Z,97753.06
2022-08-30T23:44:06.284Z,97739.38
2022-08-30T23:46:26.590Z,97736.59
2022-08-30T23:48:50.750Z,97738.63
2022-08-30T23:51:12.636Z,97734.22
2022-08-30T23:53:43.913Z,97729.63
2022-08-30T23:56:04.497Z,97730.78
2022-08-30T23:58:24.789Z,97736.19
